Time;durP1;ratioP1;P1;durP2;ratioP2;P2;SDS_P1;SDS_P2;PMS_P1;PMS_P2;Temp;Humidity;BMP_temperature;BMP_pressure;BME280_temperature;BME280_humidity;BME280_pressure;Samples;Min_cycle;Max_cycle;Signal;HPM_P1;HPM_P2
2021/11/14 00:00:27;;;;;;;28.45;17.92;;;;;;;1.33;69.47;95186.06;5070881;28;20079;-72
2021/11/14 00:02:53;;;;;;;24.52;17.48;;;;;;;1.31;69.86;95185.31;5039244;28;20563;-72
2021/11/14 00:05:19;;;;;;;22.42;15.95;;;;;;;1.29;70.23;95181.16;5070981;28;20090;-72
2021/11/14 00:07:44;;;;;;;21.42;15.35;;;;;;;1.30;70.46;95183.63;5054487;28;20036;-72
2021/11/14 00:10:10;;;;;;;21.52;15.52;;;;;;;1.31;70.33;95194.72;5054221;28;20032;-72
2021/11/14 00:12:37;;;;;;;21.23;15.48;;;;;;;1.08;70.20;95155.50;5070814;28;20113;-72
2021/11/14 00:15:03;;;;;;;22.95;16.67;;;;;;;1.20;70.44;95178.94;5037550;28;20504;-72
2021/11/14 00:17:29;;;;;;;24.58;17.83;;;;;;;1.24;70.85;95183.88;5070943;28;20421;-72
2021/11/14 00:19:54;;;;;;;25.45;18.10;;;;;;;1.27;70.74;95180.38;5053977;28;20039;-73
2021/11/14 00:22:20;;;;;;;22.13;15.23;;;;;;;1.27;70.65;95188.88;5070676;28;20029;-72
2021/11/14 00:24:45;;;;;;;23.13;16.63;;;;;;;1.26;70.89;95189.78;5069883;28;20029;-72
2021/11/14 00:27:10;;;;;;;23.13;16.80;;;;;;;1.24;70.99;95193.28;5070700;28;20036;-72
2021/11/14 00:29:36;;;;;;;22.20;16.70;;;;;;;1.13;70.75;95180.94;5071650;28;20017;-72
2021/11/14 00:32:02;;;;;;;23.33;17.10;;;;;;;1.13;70.91;95186.03;5071923;28;20145;-72
2021/11/14 00:34:28;;;;;;;24.63;18.15;;;;;;;1.04;70.83;95177.00;5037148;28;20025;-72
2021/11/14 00:36:54;;;;;;;23.85;17.33;;;;;;;1.10;71.06;95189.56;5053734;28;20066;-72
2021/11/14 00:39:19;;;;;;;21.77;15.98;;;;;;;1.09;71.24;95172.53;5070330;28;20020;-72
2021/11/14 00:41:45;;;;;;;25.58;18.63;;;;;;;1.22;71.63;95184.84;5053650;28;20067;-72
2021/11/14 00:44:11;;;;;;;27.25;18.55;;;;;;;1.31;71.89;95187.03;5053525;28;20124;-72
2021/11/14 00:46:36;;;;;;;25.08;17.95;;;;;;;1.39;71.80;95186.72;5071409;28;20040;-72
2021/11/14 00:49:02;;;;;;;28.20;18.65;;;;;;;1.38;71.87;95179.94;5070035;28;20024;-72
2021/11/14 00:51:30;;;;;;;28.00;20.10;;;;;;;1.44;71.70;95174.56;5069938;28;20036;-72
2021/11/14 00:53:57;;;;;;;27.40;20.08;;;;;;;1.55;72.03;95185.19;5037515;28;20025;-72
2021/11/14 00:56:22;;;;;;;27.35;20.92;;;;;;;1.51;72.46;95179.38;5069907;28;20039;-72
2021/11/14 00:58:48;;;;;;;29.45;20.08;;;;;;;1.62;72.15;95178.94;5053395;28;20465;-72
2021/11/14 01:01:13;;;;;;;31.48;21.52;;;;;;;1.65;72.20;95176.22;5071056;28;20438;-72
2021/11/14 01:03:39;;;;;;;26.67;20.40;;;;;;;1.71;71.56;95177.69;5053233;28;20051;-72
2021/11/14 01:06:04;;;;;;;30.35;19.63;;;;;;;1.68;71.45;95172.72;5071046;28;20028;-72
2021/11/14 01:08:30;;;;;;;28.23;20.35;;;;;;;1.79;71.86;95185.91;5053157;28;20028;-71
2021/11/14 01:10:56;;;;;;;32.72;22.30;;;;;;;1.77;71.29;95168.00;5053118;28;20024;-72
2021/11/14 01:13:22;;;;;;;30.90;19.55;;;;;;;1.89;71.38;95182.03;5053337;28;20104;-72
2021/11/14 01:15:47;;;;;;;30.15;20.60;;;;;;;1.90;71.77;95177.75;5069699;28;20028;-72
2021/11/14 01:18:14;;;;;;;30.20;20.83;;;;;;;1.95;71.67;95175.81;5036406;28;20029;-72
2021/11/14 01:20:41;;;;;;;30.02;20.23;;;;;;;1.96;71.57;95164.66;5069637;28;20036;-72
2021/11/14 01:23:07;;;;;;;29.60;20.65;;;;;;;1.97;71.41;95164.59;5053335;28;20024;-72
2021/11/14 01:25:33;;;;;;;29.65;21.85;;;;;;;1.95;71.32;95158.72;5052977;28;20055;-72
2021/11/14 01:27:58;;;;;;;30.80;21.42;;;;;;;1.96;71.74;95155.25;5052848;28;20522;-72
2021/11/14 01:30:26;;;;;;;30.58;21.23;;;;;;;1.94;71.29;95159.59;5069571;28;20068;-72
2021/11/14 01:32:52;;;;;;;28.52;20.88;;;;;;;1.82;71.22;95149.06;5052944;28;20029;-72
2021/11/14 01:35:17;;;;;;;27.90;20.33;;;;;;;1.90;71.16;95158.09;5069203;28;20033;-72
2021/11/14 01:37:43;;;;;;;29.98;21.85;;;;;;;1.84;71.73;95152.38;5035716;28;20020;-72
2021/11/14 01:40:10;;;;;;;28.52;20.92;;;;;;;1.91;71.70;95164.03;5052794;28;20119;-72
2021/11/14 01:42:35;;;;;;;28.95;20.95;;;;;;;1.83;71.62;95153.28;5069618;28;20107;-72
2021/11/14 01:45:01;;;;;;;30.15;21.75;;;;;;;1.84;71.90;95165.19;5036060;28;20139;-72
2021/11/14 01:47:26;;;;;;;28.90;20.70;;;;;;;1.83;71.83;95160.97;5069589;28;20029;-72
2021/11/14 01:49:52;;;;;;;30.77;20.35;;;;;;;1.76;71.67;95145.88;5052707;28;20064;-72
2021/11/14 01:52:20;;;;;;;32.83;21.75;;;;;;;1.84;71.76;95158.34;5069357;28;20406;-72
2021/11/14 01:54:46;;;;;;;32.67;23.35;;;;;;;1.81;72.36;95160.19;5052710;28;20517;-72
2021/11/14 01:57:11;;;;;;;30.48;21.52;;;;;;;1.78;71.80;95154.31;5070826;28;20066;-71
2021/11/14 01:59:37;;;;;;;29.30;22.25;;;;;;;1.82;72.09;95154.19;5069380;28;20040;-72
2021/11/14 02:02:03;;;;;;;29.73;21.25;;;;;;;1.82;71.94;95164.44;5052539;28;20067;-72
2021/11/14 02:04:28;;;;;;;30.45;21.23;;;;;;;1.82;71.92;95164.44;5052598;28;20542;-72
2021/11/14 02:06:54;;;;;;;26.58;19.25;;;;;;;1.81;71.71;95167.88;5069275;28;20048;-72
2021/11/14 02:09:19;;;;;;;31.00;22.42;;;;;;;1.72;70.75;95164.81;5052530;28;20062;-72
2021/11/14 02:11:45;;;;;;;27.73;21.58;;;;;;;1.71;71.71;95162.34;5069103;28;20473;-72
2021/11/14 02:14:10;;;;;;;32.22;22.65;;;;;;;1.64;71.40;95158.34;5069225;28;20025;-72
2021/11/14 02:16:36;;;;;;;29.48;20.38;;;;;;;1.56;70.95;95149.28;5069134;28;20402;-72
2021/11/14 02:19:01;;;;;;;24.77;18.73;;;;;;;1.51;71.30;95147.81;5070400;28;20040;-72
2021/11/14 02:21:27;;;;;;;24.48;19.25;;;;;;;1.47;71.93;95159.88;5068975;28;20116;-72
2021/11/14 02:23:53;;;;;;;28.83;19.65;;;;;;;1.42;71.83;95146.47;5070292;28;20036;-72
2021/11/14 02:26:21;;;;;;;23.52;17.20;;;;;;;1.50;71.19;95152.06;5069041;28;20132;-72
2021/11/14 02:28:47;;;;;;;27.83;19.92;;;;;;;1.48;71.55;95151.34;5052835;28;20055;-72
2021/11/14 02:31:12;;;;;;;30.80;20.52;;;;;;;1.56;72.05;95161.22;5052126;28;20411;-72
2021/11/14 02:33:38;;;;;;;27.80;19.50;;;;;;;1.60;71.69;95155.09;5035702;28;20501;-72
2021/11/14 02:36:05;;;;;;;26.23;18.90;;;;;;;1.57;71.88;95142.44;5069113;28;20509;-72
2021/11/14 02:38:31;;;;;;;28.35;20.55;;;;;;;1.69;71.92;95156.44;5070210;28;20033;-72
2021/11/14 02:40:57;;;;;;;27.60;19.27;;;;;;;1.69;71.82;95162.38;5052124;28;20054;-72
2021/11/14 02:43:22;;;;;;;30.20;20.63;;;;;;;1.67;71.63;95153.97;5052337;28;20028;-72
2021/11/14 02:45:48;;;;;;;26.85;19.17;;;;;;;1.68;71.49;95152.22;5035645;28;20040;-72
2021/11/14 02:48:13;;;;;;;27.30;18.88;;;;;;;1.65;71.59;95147.22;5070962;28;20044;-71
2021/11/14 02:50:40;;;;;;;28.08;20.55;;;;;;;1.71;71.54;95152.91;5055745;28;20515;-72
2021/11/14 02:53:05;;;;;;;27.58;19.08;;;;;;;1.73;71.37;95161.38;5055614;28;20032;-72
2021/11/14 02:55:34;;;;;;;27.75;19.25;;;;;;;1.72;71.52;95153.75;5072241;28;20086;-72
2021/11/14 02:57:59;;;;;;;25.90;19.38;;;;;;;1.66;71.85;95154.84;5073970;28;20102;-71
2021/11/14 03:00:28;;;;;;;29.73;19.65;;;;;;;1.65;71.65;95153.19;5055416;28;20044;-72
2021/11/14 03:02:53;;;;;;;28.80;20.13;;;;;;;1.64;71.70;95156.63;5039224;28;20461;-72
2021/11/14 03:05:19;;;;;;;31.70;20.88;;;;;;;1.53;71.70;95143.44;5072150;28;20032;-72
2021/11/14 03:07:45;;;;;;;25.33;18.98;;;;;;;1.64;71.73;95156.63;5055658;28;20028;-72
2021/11/14 03:10:11;;;;;;;26.70;18.50;;;;;;;1.63;71.15;95154.97;5055334;28;20123;-72
2021/11/14 03:12:37;;;;;;;27.58;19.45;;;;;;;1.53;71.87;95143.44;5038838;28;20045;-72
2021/11/14 03:15:03;;;;;;;26.63;19.60;;;;;;;1.49;71.45;95134.25;5038598;28;20379;-72
2021/11/14 03:17:28;;;;;;;24.77;17.98;;;;;;;1.62;71.21;95158.44;5055243;28;20037;-72
2021/11/14 03:19:54;;;;;;;24.88;16.85;;;;;;;1.54;71.30;95157.94;5073057;28;20016;-72
2021/11/14 03:22:19;;;;;;;24.75;18.00;;;;;;;1.57;71.05;95168.03;5071761;28;20036;-72
2021/11/14 03:24:45;;;;;;;28.52;18.95;;;;;;;1.46;71.19;95152.28;5055104;28;20028;-72
2021/11/14 03:27:10;;;;;;;25.50;18.02;;;;;;;1.51;71.17;95160.63;5038520;28;20032;-71
2021/11/14 03:29:36;;;;;;;24.75;17.73;;;;;;;1.47;71.27;95159.88;5054923;28;20111;-72
2021/11/14 03:32:02;;;;;;;26.52;18.55;;;;;;;1.45;71.19;95161.72;5073001;28;20120;-72
2021/11/14 03:34:28;;;;;;;25.60;18.30;;;;;;;1.41;71.52;95159.31;5055234;28;20103;-72
2021/11/14 03:36:53;;;;;;;24.88;18.00;;;;;;;1.45;71.46;95160.84;5054828;28;20055;-71
2021/11/14 03:39:18;;;;;;;27.63;18.23;;;;;;;1.44;71.33;95162.59;5072800;28;20024;-72
2021/11/14 03:41:44;;;;;;;26.23;18.13;;;;;;;1.40;71.61;95157.66;5071414;28;20412;-72
2021/11/14 03:44:10;;;;;;;24.60;17.65;;;;;;;1.34;72.12;95153.63;5054865;28;20055;-72
2021/11/14 03:46:35;;;;;;;25.42;17.95;;;;;;;1.42;71.81;95160.97;5071371;28;20035;-72
2021/11/14 03:49:01;;;;;;;25.48;17.17;;;;;;;1.39;71.64;95159.38;5071456;28;20485;-72
2021/11/14 03:51:27;;;;;;;24.30;16.58;;;;;;;1.33;71.99;95163.03;5054644;28;20105;-72
2021/11/14 03:53:53;;;;;;;24.80;17.98;;;;;;;1.26;71.74;95156.50;5054723;28;20484;-72
2021/11/14 03:56:18;;;;;;;25.90;18.13;;;;;;;1.27;71.47;95155.59;5054534;28;20045;-72
2021/11/14 03:58:44;;;;;;;23.95;17.90;;;;;;;1.23;72.18;95171.16;5070501;28;20020;-72
2021/11/14 04:01:11;;;;;;;27.02;19.05;;;;;;;1.13;71.83;95160.44;5072006;28;20525;-72
2021/11/14 04:03:37;;;;;;;23.10;17.10;;;;;;;1.22;71.60;95166.91;5071042;28;20028;-73
2021/11/14 04:06:03;;;;;;;22.52;16.50;;;;;;;1.15;72.22;95170.66;5072136;28;20395;-72
2021/11/14 04:08:28;;;;;;;25.10;17.02;;;;;;;1.13;72.62;95164.75;5054387;28;20032;-72
2021/11/14 04:10:56;;;;;;;23.33;16.20;;;;;;;1.16;72.93;95169.72;5054159;28;20036;-72
2021/11/14 04:13:22;;;;;;;22.20;15.55;;;;;;;1.15;72.08;95168.91;5071056;28;20043;-72
2021/11/14 04:15:47;;;;;;;19.63;15.02;;;;;;;1.17;72.13;95173.94;5054196;28;20028;-72
2021/11/14 04:18:13;;;;;;;23.27;16.27;;;;;;;1.14;72.29;95174.06;5037682;28;20025;-72
2021/11/14 04:20:40;;;;;;;19.08;13.50;;;;;;;1.14;71.96;95174.91;5037445;28;20126;-71
2021/11/14 04:23:06;;;;;;;22.33;14.18;;;;;;;0.95;71.73;95150.94;5054055;28;20514;-72
2021/11/14 04:25:32;;;;;;;20.83;14.80;;;;;;;1.08;71.59;95185.38;5037251;28;20205;-72
2021/11/14 04:27:57;;;;;;;20.85;15.23;;;;;;;1.04;71.73;95191.53;5070763;28;20025;-72
2021/11/14 04:30:23;;;;;;;19.60;14.38;;;;;;;1.00;71.23;95183.13;5053851;28;20128;-72
2021/11/14 04:32:49;;;;;;;22.65;16.08;;;;;;;0.98;70.80;95184.94;5070568;28;20032;-72
2021/11/14 04:35:15;;;;;;;22.33;15.40;;;;;;;0.83;71.12;95176.13;5053704;28;20032;-72
2021/11/14 04:37:40;;;;;;;21.80;14.82;;;;;;;0.88;70.87;95189.56;5070309;28;20043;-72
2021/11/14 04:40:07;;;;;;;25.33;16.50;;;;;;;0.79;70.91;95177.13;5053641;28;20039;-72
2021/11/14 04:42:32;;;;;;;23.20;15.43;;;;;;;0.80;70.85;95185.63;5053846;28;20068;-72
2021/11/14 04:44:58;;;;;;;22.70;16.00;;;;;;;0.77;71.45;95176.34;5070119;28;20475;-72
2021/11/14 04:47:23;;;;;;;19.27;13.63;;;;;;;0.79;71.39;95191.66;5053688;28;20036;-72
2021/11/14 04:49:49;;;;;;;21.45;15.20;;;;;;;0.70;71.61;95182.63;5071274;28;20024;-72
2021/11/14 04:52:14;;;;;;;20.25;14.55;;;;;;;0.56;71.43;95170.38;5053442;28;20032;-72
2021/11/14 04:54:39;;;;;;;21.70;15.10;;;;;;;0.50;71.04;95180.78;5036714;28;20032;-72
2021/11/14 04:57:05;;;;;;;20.58;14.73;;;;;;;0.52;70.93;95193.53;5070259;28;20029;-72
2021/11/14 04:59:30;;;;;;;20.40;14.50;;;;;;;0.40;71.17;95182.88;5071183;28;20029;-72
2021/11/14 05:01:56;;;;;;;22.33;14.30;;;;;;;0.40;70.69;95194.84;5053272;28;20506;-72
2021/11/14 05:04:21;;;;;;;19.20;13.68;;;;;;;0.33;71.28;95194.22;5071103;28;20047;-72
2021/11/14 05:06:47;;;;;;;20.38;14.10;;;;;;;0.24;71.39;95188.63;5053104;28;20070;-72
2021/11/14 05:09:12;;;;;;;20.58;14.23;;;;;;;0.25;71.21;95193.66;5069887;28;20086;-72
2021/11/14 05:11:38;;;;;;;17.80;13.18;;;;;;;0.23;71.26;95195.44;5069515;28;20040;-72
2021/11/14 05:14:03;;;;;;;18.05;13.70;;;;;;;0.29;71.41;95218.22;5069841;28;20078;-72
2021/11/14 05:16:29;;;;;;;20.30;13.25;;;;;;;0.19;71.10;95206.66;5069601;28;20040;-72
2021/11/14 05:18:54;;;;;;;17.40;12.68;;;;;;;0.22;71.24;95225.28;5069780;28;20024;-72
2021/11/14 05:21:20;;;;;;;18.92;13.38;;;;;;;0.18;71.19;95221.16;5069626;28;20471;-72
2021/11/14 05:23:45;;;;;;;16.90;11.77;;;;;;;0.09;71.18;95218.13;5053030;28;20426;-72
2021/11/14 05:26:11;;;;;;;17.08;13.07;;;;;;;0.12;71.79;95229.06;5052799;28;20029;-72
2021/11/14 05:28:38;;;;;;;18.67;13.50;;;;;;;0.10;71.89;95227.44;5069603;28;20060;-72
2021/11/14 05:31:03;;;;;;;18.25;12.93;;;;;;;0.09;71.46;95225.78;5052811;28;20051;-72
2021/11/14 05:33:29;;;;;;;17.35;12.77;;;;;;;0.01;71.83;95227.78;5070796;28;20407;-72
2021/11/14 05:35:54;;;;;;;17.77;13.52;;;;;;;0.00;71.56;95226.94;5069531;28;20029;-72
2021/11/14 05:38:19;;;;;;;19.50;13.30;;;;;;;-0.01;71.66;95235.47;5071245;28;20029;-72
2021/11/14 05:40:45;;;;;;;17.45;11.85;;;;;;;-0.04;71.91;95233.03;5069548;28;20090;-72
2021/11/14 05:43:11;;;;;;;19.08;13.40;;;;;;;-0.06;71.82;95238.19;5071187;28;20040;-72
2021/11/14 05:45:36;;;;;;;18.30;14.05;;;;;;;-0.07;71.89;95230.59;5052802;28;20036;-72
2021/11/14 05:48:02;;;;;;;19.00;12.30;;;;;;;-0.04;71.96;95244.06;5052945;28;20040;-72
2021/11/14 05:50:28;;;;;;;21.67;14.88;;;;;;;-0.07;72.06;95240.78;5052753;28;20028;-72
2021/11/14 05:52:54;;;;;;;18.65;13.60;;;;;;;-0.03;72.23;95255.97;5052899;28;20036;-72
2021/11/14 05:55:19;;;;;;;23.35;15.45;;;;;;;-0.07;72.32;95253.56;5052563;28;20123;-72
2021/11/14 06:00:27;;;;;;;21.23;13.38;;;;;;;-0.02;72.34;95260.19;5053582;28;20519;-72
2021/11/14 06:02:59;;;;;;;19.92;14.18;;;;;;;-0.01;72.05;95256.72;5054491;28;20089;-72
2021/11/14 06:05:25;;;;;;;19.88;13.65;;;;;;;-0.06;71.86;95250.94;5070531;28;20087;-72
2021/11/14 06:07:51;;;;;;;25.13;17.33;;;;;;;-0.01;71.96;95256.72;5052942;28;20414;-72
2021/11/14 06:10:17;;;;;;;27.70;19.05;;;;;;;-0.04;72.47;95263.69;5052369;28;20035;-73
2021/11/14 06:12:44;;;;;;;31.13;20.63;;;;;;;0.07;72.51;95270.97;5052548;28;20036;-71
2021/11/14 06:15:10;;;;;;;27.75;20.02;;;;;;;0.08;72.65;95267.53;5052562;28;20032;-71
2021/11/14 06:17:36;;;;;;;47.95;31.63;;;;;;;0.03;72.00;95267.72;5035950;28;20422;-70
2021/11/14 06:20:03;;;;;;;47.65;30.83;;;;;;;0.08;72.34;95270.09;5052421;28;20025;-71
2021/11/14 06:22:28;;;;;;;60.08;37.42;;;;;;;0.01;72.56;95261.81;5070084;28;20405;-71
2021/11/14 06:24:54;;;;;;;55.75;38.03;;;;;;;0.09;72.31;95264.09;5056237;28;20039;-71
2021/11/14 06:27:19;;;;;;;61.55;39.00;;;;;;;0.11;72.35;95259.75;5072930;28;20505;-71
2021/11/14 06:29:45;;;;;;;51.20;34.80;;;;;;;0.27;72.40;95276.22;5072627;28;20017;-70
2021/11/14 06:32:10;;;;;;;62.22;39.35;;;;;;;0.29;72.51;95266.78;5056056;28;20502;-70
2021/11/14 06:34:36;;;;;;;55.75;36.15;;;;;;;0.39;72.22;95275.81;5056014;28;20021;-71
2021/11/14 06:37:02;;;;;;;62.03;40.85;;;;;;;0.48;72.35;95281.47;5072595;28;20028;-71
2021/11/14 06:39:27;;;;;;;54.90;37.88;;;;;;;0.48;72.51;95279.75;5072631;28;20020;-70
2021/11/14 06:41:52;;;;;;;53.05;32.50;;;;;;;0.54;72.68;95283.81;5073898;28;20479;-71
2021/11/14 06:44:18;;;;;;;50.53;31.77;;;;;;;0.50;72.99;95287.34;5055932;28;20392;-71
2021/11/14 06:46:43;;;;;;;68.05;36.78;;;;;;;0.30;73.36;95270.16;5055818;28;20040;-71
2021/11/14 06:49:09;;;;;;;72.20;37.97;;;;;;;0.33;74.13;95282.84;5072612;28;20334;-70
2021/11/14 06:51:34;;;;;;;75.57;40.92;;;;;;;0.32;74.44;95282.00;5072156;28;20044;-71
2021/11/14 06:54:00;;;;;;;79.32;40.47;;;;;;;0.36;74.84;95278.47;5073615;28;20074;-71
2021/11/14 06:56:25;;;;;;;74.97;38.30;;;;;;;0.38;75.10;95279.22;5055452;28;20094;-71
2021/11/14 06:58:50;;;;;;;68.88;37.67;;;;;;;0.51;74.76;95283.91;5055570;28;20040;-71
2021/11/14 07:01:16;;;;;;;71.63;37.92;;;;;;;0.51;74.98;95279.63;5072398;28;20040;-71
2021/11/14 07:03:41;;;;;;;54.22;33.05;;;;;;;0.58;74.63;95277.69;5038843;28;20032;-71
2021/11/14 07:06:07;;;;;;;62.05;34.58;;;;;;;0.72;74.76;95280.56;5055076;28;20036;-71
2021/11/14 07:08:32;;;;;;;82.78;41.38;;;;;;;0.76;74.95;95276.19;5072144;28;20025;-71
2021/11/14 07:10:58;;;;;;;83.60;39.30;;;;;;;0.77;74.29;95276.09;5055390;28;20021;-71
2021/11/14 07:13:23;;;;;;;87.22;37.08;;;;;;;0.79;74.65;95279.44;5073185;28;20040;-71
2021/11/14 07:15:49;;;;;;;89.10;40.88;;;;;;;0.74;75.01;95265.16;5055329;28;20040;-71
2021/11/14 07:18:14;;;;;;;76.95;39.05;;;;;;;0.88;75.08;95273.97;5072193;28;20024;-71
2021/11/14 07:20:40;;;;;;;65.30;36.40;;;;;;;1.23;77.33;95278.66;5071884;28;20040;-71
2021/11/14 07:23:05;;;;;;;59.95;36.65;;;;;;;1.63;82.32;95283.03;5055416;28;20021;-71
2021/11/14 07:25:31;;;;;;;69.13;44.05;;;;;;;2.02;83.05;95274.59;5072034;28;20028;-71
2021/11/14 07:27:56;;;;;;;63.42;38.38;;;;;;;2.38;82.64;95276.50;5055292;28;20525;-71
2021/11/14 07:30:22;;;;;;;64.38;39.55;;;;;;;2.71;82.08;95281.88;5054979;28;20032;-71
2021/11/14 07:32:48;;;;;;;58.95;35.78;;;;;;;2.84;78.81;95274.44;5071814;28;20024;-71
2021/11/14 07:35:14;;;;;;;74.75;40.85;;;;;;;2.72;75.58;95246.78;5054946;28;20036;-71
2021/11/14 07:37:40;;;;;;;63.40;34.80;;;;;;;2.97;75.94;95274.72;5071700;28;20037;-71
2021/11/14 07:40:07;;;;;;;57.58;34.00;;;;;;;3.03;73.78;95277.84;5072699;28;20512;-71
2021/11/14 07:42:33;;;;;;;72.03;36.47;;;;;;;3.12;69.14;95276.56;5054987;28;20051;-71
2021/11/14 07:44:58;;;;;;;71.53;36.78;;;;;;;3.09;70.59;95275.00;5054844;28;20028;-71
2021/11/14 07:47:24;;;;;;;70.00;39.28;;;;;;;3.10;69.85;95263.00;5071546;28;20025;-72
2021/11/14 07:49:49;;;;;;;61.17;35.13;;;;;;;3.22;69.34;95275.25;5073573;28;20037;-71
2021/11/14 07:52:15;;;;;;;49.42;30.75;;;;;;;3.30;68.63;95280.03;5083971;28;20033;-72
2021/11/14 07:54:40;;;;;;;43.20;27.05;;;;;;;3.36;68.79;95267.72;5091457;28;20028;-71
2021/11/14 07:57:06;;;;;;;40.75;27.23;;;;;;;3.41;68.47;95272.66;5092881;28;20034;-72
2021/11/14 07:59:31;;;;;;;40.90;27.38;;;;;;;3.53;66.84;95266.94;5057827;28;20027;-71
2021/11/14 08:01:57;;;;;;;54.03;35.13;;;;;;;3.49;67.26;95256.91;5092483;28;20506;-71
2021/11/14 08:04:23;;;;;;;56.88;35.17;;;;;;;3.58;68.32;95262.41;5072423;28;20033;-72
2021/11/14 08:06:48;;;;;;;49.35;32.67;;;;;;;3.74;67.31;95261.69;5071016;28;20063;-71
2021/11/14 08:09:14;;;;;;;43.15;28.73;;;;;;;3.74;67.30;95249.66;5072205;28;20095;-72
2021/11/14 08:11:39;;;;;;;51.10;31.63;;;;;;;3.88;67.78;95261.81;5037424;28;20048;-71
2021/11/14 08:14:05;;;;;;;49.72;32.78;;;;;;;4.00;67.11;95262.94;5072117;28;20429;-72
2021/11/14 08:16:30;;;;;;;45.33;30.67;;;;;;;4.06;67.18;95261.81;5072204;28;20086;-72
2021/11/14 08:18:56;;;;;;;49.30;33.03;;;;;;;4.17;66.67;95268.06;5074664;28;20039;-72
2021/11/14 08:21:21;;;;;;;54.58;33.95;;;;;;;4.25;67.36;95270.25;5070513;28;20040;-71
2021/11/14 08:23:46;;;;;;;48.60;31.50;;;;;;;4.34;66.87;95256.94;5054053;28;20028;-72
2021/11/14 08:26:12;;;;;;;49.63;31.67;;;;;;;4.47;67.25;95260.53;5070454;28;20479;-71
2021/11/14 08:28:38;;;;;;;43.92;29.92;;;;;;;4.59;67.32;95259.06;5053953;28;20126;-72
2021/11/14 08:31:04;;;;;;;43.60;29.40;;;;;;;4.69;66.19;95264.56;5070419;28;20044;-71
2021/11/14 08:33:31;;;;;;;43.75;30.58;;;;;;;4.86;66.56;95261.09;5070305;28;20063;-72
2021/11/14 08:35:57;;;;;;;47.30;30.65;;;;;;;4.93;65.83;95260.69;5054034;28;20020;-72
2021/11/14 08:38:24;;;;;;;43.17;30.10;;;;;;;5.07;66.58;95256.53;5054052;28;20506;-71
2021/11/14 08:40:49;;;;;;;40.22;27.17;;;;;;;5.34;66.76;95260.19;5053907;28;20032;-72
2021/11/14 08:43:15;;;;;;;41.03;28.27;;;;;;;5.55;65.85;95259.94;5070867;28;20063;-72
2021/11/14 08:45:42;;;;;;;36.55;25.40;;;;;;;5.72;65.17;95259.81;5069770;28;20020;-72
2021/11/14 08:48:08;;;;;;;36.58;25.48;;;;;;;5.80;63.97;95257.63;5054183;28;20071;-72
2021/11/14 08:50:33;;;;;;;37.97;26.50;;;;;;;5.90;64.25;95254.50;5070222;28;20037;-73
2021/11/14 08:52:59;;;;;;;38.58;24.13;;;;;;;5.89;63.31;95256.25;5072126;28;20419;-70
2021/11/14 08:55:25;;;;;;;33.08;23.70;;;;;;;6.03;63.01;95263.22;5070090;28;20391;-70
2021/11/14 08:57:51;;;;;;;36.85;23.90;;;;;;;6.16;61.56;95260.78;5053558;28;20090;-72
2021/11/14 09:00:20;;;;;;;33.88;23.90;;;;;;;6.14;61.95;95258.28;5053368;28;20048;-70
2021/11/14 09:02:46;;;;;;;35.83;24.13;;;;;;;6.16;61.45;95253.88;5070414;28;20028;-70
2021/11/14 09:05:11;;;;;;;44.97;29.92;;;;;;;6.17;61.41;95252.13;5070164;28;20029;-72
2021/11/14 09:07:37;;;;;;;43.58;28.33;;;;;;;6.34;62.05;95262.25;5069820;28;20568;-70
2021/11/14 09:10:03;;;;;;;44.13;27.27;;;;;;;6.50;62.38;95262.19;5076356;28;20256;-73
2021/11/14 09:12:29;;;;;;;39.60;26.05;;;;;;;6.62;61.52;95252.88;5053508;28;20032;-71
2021/11/14 09:14:56;;;;;;;38.50;25.02;;;;;;;6.71;61.10;95252.31;5071042;28;20514;-70
2021/11/14 09:17:21;;;;;;;32.75;22.92;;;;;;;6.84;61.95;95249.84;5070033;28;20040;-72
2021/11/14 09:19:47;;;;;;;36.03;24.75;;;;;;;6.98;61.83;95249.00;5069911;28;20540;-73
2021/11/14 09:22:12;;;;;;;34.60;23.50;;;;;;;7.05;61.19;95239.91;5053082;28;20036;-73
2021/11/14 09:24:38;;;;;;;31.20;21.73;;;;;;;6.92;60.15;95221.78;5057555;28;20410;-72
2021/11/14 09:27:04;;;;;;;36.58;25.23;;;;;;;7.01;59.34;95228.94;5071221;28;20478;-72
2021/11/14 09:29:30;;;;;;;35.40;24.05;;;;;;;7.11;59.69;95227.47;5075761;28;20039;-74
2021/11/14 09:31:56;;;;;;;33.40;22.50;;;;;;;7.22;60.23;95224.22;5072228;28;20035;-71
2021/11/14 09:34:21;;;;;;;35.67;24.92;;;;;;;7.32;58.65;95221.84;5054275;28;20040;-73
2021/11/14 09:36:47;;;;;;;38.95;27.23;;;;;;;7.22;58.07;95223.38;5070806;28;20025;-72
2021/11/14 09:39:13;;;;;;;37.88;26.90;;;;;;;7.30;58.91;95226.28;5070742;28;20025;-73
2021/11/14 09:41:42;;;;;;;40.47;27.95;;;;;;;7.40;59.09;95227.38;5070686;28;20505;-73
2021/11/14 09:44:10;;;;;;;38.63;25.35;;;;;;;7.47;59.27;95227.81;5053125;28;20399;-73
2021/11/14 09:46:36;;;;;;;42.20;26.48;;;;;;;7.47;58.46;95220.91;5069446;28;20510;-73
2021/11/14 09:49:04;;;;;;;36.45;25.25;;;;;;;7.52;58.61;95225.75;5052933;28;20078;-73
2021/11/14 09:51:30;;;;;;;35.95;25.85;;;;;;;7.53;58.67;95228.25;5063605;28;22007;-73
2021/11/14 09:53:56;;;;;;;36.05;25.63;;;;;;;7.52;58.27;95220.59;5072191;28;20016;-73
2021/11/14 09:56:21;;;;;;;34.80;24.25;;;;;;;7.61;58.42;95226.00;5074962;28;20043;-73
2021/11/14 09:58:46;;;;;;;36.05;24.52;;;;;;;7.68;58.51;95225.59;5076354;28;20058;-73
2021/11/14 10:01:12;;;;;;;36.70;24.17;;;;;;;7.70;57.26;95218.59;5088019;28;20044;-73
2021/11/14 10:03:37;;;;;;;41.92;26.52;;;;;;;7.46;57.29;95205.47;5093662;28;20035;-73
2021/11/14 10:06:03;;;;;;;51.40;28.95;;;;;;;7.27;58.08;95200.66;5090756;28;20383;-73
2021/11/14 10:08:36;;;;;;;43.95;27.35;;;;;;;7.43;57.30;95216.84;5084125;28;20505;-74
2021/11/14 10:11:03;;;;;;;40.15;26.63;;;;;;;7.33;57.18;95202.84;5095316;28;20157;-72
2021/11/14 10:13:32;;;;;;;39.25;25.45;;;;;;;7.22;57.97;95187.22;5076372;28;20028;-71
2021/11/14 10:16:07;;;;;;;37.60;27.23;;;;;;;7.22;57.95;95176.88;5059741;28;20084;-72
2021/11/14 10:18:32;;;;;;;37.67;23.45;;;;;;;7.49;58.21;95194.94;5093061;28;20038;-71
2021/11/14 10:21:01;;;;;;;36.50;24.25;;;;;;;7.64;58.81;95190.53;5088748;28;20486;-72
2021/11/14 10:23:27;;;;;;;38.20;24.95;;;;;;;7.78;59.00;95180.94;5072493;28;20032;-71
2021/11/14 10:25:54;;;;;;;41.33;27.05;;;;;;;7.73;56.81;95167.47;5054963;28;20510;-72
2021/11/14 10:28:20;;;;;;;35.88;24.80;;;;;;;7.79;56.83;95176.59;5074558;28;20495;-72
2021/11/14 10:30:46;;;;;;;41.33;27.75;;;;;;;7.88;57.36;95169.97;5056180;28;20025;-72
2021/11/14 10:33:14;;;;;;;46.08;28.92;;;;;;;7.98;56.91;95179.63;5056392;28;20048;-71
2021/11/14 10:35:40;;;;;;;37.60;23.90;;;;;;;8.11;57.17;95168.44;5072717;28;20025;-71
2021/11/14 10:38:10;;;;;;;33.72;24.13;;;;;;;8.20;57.38;95175.59;5073109;28;20040;-72
2021/11/14 10:40:38;;;;;;;41.75;28.52;;;;;;;8.18;55.75;95172.28;5056083;28;20024;-72
2021/11/14 10:43:03;;;;;;;36.65;24.70;;;;;;;8.09;55.47;95165.13;5072839;28;20037;-72
2021/11/14 10:45:29;;;;;;;40.70;25.60;;;;;;;8.10;55.17;95159.03;5073767;28;20214;-72
2021/11/14 10:48:00;;;;;;;36.05;25.17;;;;;;;7.96;54.91;95153.00;5072767;28;20406;-72
2021/11/14 10:50:28;;;;;;;43.60;27.85;;;;;;;7.97;55.17;95152.09;5039238;28;20071;-71
2021/11/14 10:53:00;;;;;;;35.75;23.98;;;;;;;7.94;55.19;95165.25;5056279;28;20061;-71
2021/11/14 10:55:30;;;;;;;36.00;23.23;;;;;;;7.94;55.65;95149.72;5057763;28;20032;-72
2021/11/14 10:57:56;;;;;;;35.65;24.48;;;;;;;8.03;55.97;95156.84;5039443;28;20128;-71
2021/11/14 11:00:23;;;;;;;35.42;23.20;;;;;;;8.17;55.53;95160.28;5055022;28;20426;-72
2021/11/14 11:02:48;;;;;;;40.30;25.85;;;;;;;8.18;55.11;95147.22;5071211;28;20041;-72
2021/11/14 11:05:14;;;;;;;36.17;23.85;;;;;;;8.25;54.80;95152.81;5037752;28;20024;-72
2021/11/14 11:07:58;;;;;;;38.78;24.92;;;;;;;8.26;54.39;95136.34;5071184;28;20044;-72
2021/11/14 11:10:34;;;;;;;33.15;24.02;;;;;;;8.39;54.14;95139.78;5071167;28;20405;-72
2021/11/14 11:13:01;;;;;;;36.42;23.23;;;;;;;8.47;54.82;95142.69;5071245;28;20036;-72
2021/11/14 11:15:26;;;;;;;33.42;21.15;;;;;;;8.45;53.74;95138.53;5070967;28;20032;-72
2021/11/14 11:17:53;;;;;;;30.23;19.92;;;;;;;8.46;53.82;95133.22;5054418;28;20082;-72
2021/11/14 11:20:23;;;;;;;32.97;22.23;;;;;;;8.52;54.13;95128.56;5071237;28;20032;-72